createdAt,value
2018-12-04T00:01:50.833Z,33.03
2018-12-04T00:04:17.241Z,33.02
2018-12-04T00:06:43.568Z,33.12
2018-12-04T00:09:09.899Z,33.10
2018-12-04T00:11:36.235Z,33.14
2018-12-04T00:14:02.587Z,33.03
2018-12-04T00:16:28.928Z,32.98
2018-12-04T00:18:55.249Z,32.97
2018-12-04T00:21:21.593Z,33.18
2018-12-04T00:23:47.937Z,33.17
2018-12-04T00:26:14.334Z,33.19
2018-12-04T00:28:40.710Z,33.22
2018-12-04T00:31:07.084Z,33.21
2018-12-04T00:33:33.461Z,33.19
2018-12-04T00:35:59.788Z,33.24
2018-12-04T00:38:26.186Z,33.15
2018-12-04T00:40:52.525Z,33.38
2018-12-04T00:43:18.940Z,33.39
2018-12-04T00:45:45.264Z,33.34
2018-12-04T00:48:11.659Z,33.44
2018-12-04T00:50:38.079Z,33.38
2018-12-04T00:53:04.415Z,33.56
2018-12-04T00:55:30.812Z,33.46
2018-12-04T00:57:57.145Z,33.49
2018-12-04T01:00:23.489Z,33.55
2018-12-04T01:02:49.838Z,33.53
2018-12-04T01:05:16.192Z,33.37
2018-12-04T01:07:42.516Z,32.71
2018-12-04T01:10:08.922Z,32.55
2018-12-04T01:12:35.252Z,32.67
2018-12-04T01:15:01.703Z,33.07
2018-12-04T01:17:28.134Z,32.61
2018-12-04T01:19:54.579Z,32.99
2018-12-04T01:22:21.020Z,32.79
2018-12-04T01:24:47.362Z,32.64
2018-12-04T01:27:13.690Z,32.57
2018-12-04T01:29:40.033Z,32.70
2018-12-04T01:32:06.382Z,32.89
2018-12-04T01:34:32.710Z,32.70
2018-12-04T01:36:59.100Z,32.74
2018-12-04T01:39:25.449Z,32.80
2018-12-04T01:41:51.793Z,32.57
2018-12-04T01:44:18.137Z,32.72
2018-12-04T01:46:44.528Z,32.45
2018-12-04T01:49:10.863Z,32.35
2018-12-04T01:51:37.218Z,32.25
2018-12-04T01:54:03.553Z,32.38
2018-12-04T01:56:29.985Z,32.24
2018-12-04T01:58:56.279Z,32.38
2018-12-04T02:01:22.631Z,32.57
2018-12-04T02:03:49.007Z,32.64
2018-12-04T02:06:15.466Z,32.53
2018-12-04T02:08:41.796Z,32.67
2018-12-04T02:11:08.143Z,32.32
2018-12-04T02:13:34.469Z,32.54
2018-12-04T02:16:00.802Z,32.46
2018-12-04T02:18:27.129Z,32.11
2018-12-04T02:20:53.521Z,31.99
2018-12-04T02:23:19.847Z,31.88
2018-12-04T02:25:46.206Z,31.92
2018-12-04T02:28:12.530Z,31.71
2018-12-04T02:30:38.868Z,31.85
2018-12-04T02:33:05.206Z,31.79
2018-12-04T02:35:31.641Z,31.84
2018-12-04T02:37:57.970Z,31.87
2018-12-04T02:40:24.299Z,31.79
2018-12-04T02:42:50.628Z,31.67
2018-12-04T02:45:16.964Z,31.52
2018-12-04T02:47:43.357Z,31.52
2018-12-04T02:50:09.661Z,31.42
2018-12-04T02:52:36.020Z,31.37
2018-12-04T02:55:02.366Z,31.26
2018-12-04T02:57:28.719Z,31.26
2018-12-04T02:59:55.077Z,31.24
2018-12-04T03:02:21.404Z,31.25
2018-12-04T03:04:47.745Z,31.38
2018-12-04T03:07:14.088Z,31.41
2018-12-04T03:09:40.452Z,31.30
2018-12-04T03:12:06.785Z,31.39
2018-12-04T03:14:33.114Z,31.25
2018-12-04T03:16:59.551Z,31.30
2018-12-04T03:19:25.882Z,31.11
2018-12-04T03:21:52.232Z,31.17
2018-12-04T03:24:18.557Z,31.15
2018-12-04T03:26:44.897Z,31.09
2018-12-04T03:29:11.223Z,31.22
2018-12-04T03:31:37.620Z,31.34
2018-12-04T03:34:03.917Z,31.27
2018-12-04T03:36:30.397Z,31.28
2018-12-04T03:38:56.725Z,31.25
2018-12-04T03:41:23.050Z,31.20
2018-12-04T03:43:49.382Z,31.14
2018-12-04T03:46:15.732Z,31.11
2018-12-04T03:48:42.059Z,31.17
2018-12-04T03:51:10.336Z,31.07
2018-12-04T03:53:34.769Z,31.09
2018-12-04T03:56:01.094Z,31.07
2018-12-04T03:58:27.430Z,31.04
2018-12-04T04:00:53.761Z,31.01
2018-12-04T04:03:20.083Z,31.12
2018-12-04T04:05:46.425Z,31.05
2018-12-04T04:08:12.828Z,31.03
2018-12-04T04:10:39.207Z,31.03
2018-12-04T04:13:05.570Z,30.97
2018-12-04T04:15:31.905Z,31.01
2018-12-04T04:17:58.226Z,30.92
2018-12-04T04:20:24.565Z,30.98
2018-12-04T04:22:50.887Z,30.94
2018-12-04T04:25:17.219Z,30.87
2018-12-04T04:27:43.557Z,30.79
2018-12-04T04:30:09.939Z,30.86
2018-12-04T04:32:36.279Z,30.79
2018-12-04T04:35:02.643Z,30.87
2018-12-04T04:37:29.021Z,30.80
2018-12-04T04:39:55.401Z,30.77
2018-12-04T04:42:21.751Z,30.79
2018-12-04T04:44:48.078Z,30.70
2018-12-04T04:47:14.449Z,30.64
2018-12-04T04:49:40.737Z,30.63
2018-12-04T04:52:07.074Z,30.59
2018-12-04T04:54:33.403Z,30.61
2018-12-04T04:56:59.744Z,30.69
2018-12-04T04:59:26.075Z,30.60
2018-12-04T05:01:52.415Z,30.99
2018-12-04T05:04:18.749Z,30.72
2018-12-04T05:06:45.149Z,30.69
2018-12-04T05:09:11.522Z,30.64
2018-12-04T05:11:37.926Z,30.55
2018-12-04T05:14:04.322Z,30.57
2018-12-04T05:16:30.698Z,30.61
2018-12-04T05:18:57.039Z,30.61
2018-12-04T05:21:23.482Z,30.54
2018-12-04T05:23:49.813Z,30.54
2018-12-04T05:26:16.170Z,30.46
2018-12-04T05:28:42.514Z,30.48
2018-12-04T05:31:08.868Z,30.47
2018-12-04T05:33:35.284Z,30.46
2018-12-04T05:36:01.709Z,30.49
2018-12-04T05:38:28.052Z,30.31
2018-12-04T05:40:54.430Z,30.31
2018-12-04T05:43:20.786Z,30.75
2018-12-04T05:45:47.131Z,30.34
2018-12-04T05:48:13.511Z,30.92
2018-12-04T05:50:39.876Z,30.85
2018-12-04T05:53:06.331Z,30.63
2018-12-04T05:55:32.677Z,30.79
2018-12-04T05:57:59.058Z,30.46
2018-12-04T06:00:25.356Z,30.56
2018-12-04T06:02:51.766Z,30.53
2018-12-04T06:05:18.125Z,30.39
2018-12-04T06:07:44.448Z,30.31
2018-12-04T06:10:10.786Z,30.45
2018-12-04T06:12:37.167Z,30.56
2018-12-04T06:15:03.497Z,30.99
2018-12-04T06:17:29.827Z,31.17
2018-12-04T06:19:56.190Z,30.68
2018-12-04T06:22:22.520Z,30.51
2018-12-04T06:24:48.864Z,30.48
2018-12-04T06:27:15.194Z,30.35
2018-12-04T06:29:41.686Z,30.60
2018-12-04T06:32:08.120Z,30.54
2018-12-04T06:34:34.461Z,30.62
2018-12-04T06:37:00.812Z,30.64
2018-12-04T06:39:27.155Z,30.57
2018-12-04T06:41:53.517Z,30.45
2018-12-04T06:44:19.872Z,31.03
2018-12-04T06:46:46.301Z,30.42
2018-12-04T06:49:12.652Z,30.47
2018-12-04T06:51:38.992Z,30.59
2018-12-04T06:54:05.329Z,30.95
2018-12-04T06:56:31.668Z,30.79
2018-12-04T06:58:59.590Z,30.74
2018-12-04T07:01:24.331Z,30.71
2018-12-04T07:03:50.655Z,30.81
2018-12-04T07:06:16.989Z,30.39
2018-12-04T07:08:43.327Z,30.36
2018-12-04T07:11:09.678Z,30.21
2018-12-04T07:13:36.016Z,30.07
2018-12-04T07:16:02.360Z,30.47
2018-12-04T07:18:28.680Z,30.57
2018-12-04T07:20:55.018Z,30.11
2018-12-04T07:23:21.473Z,29.76
2018-12-04T07:25:50.272Z,29.84
2018-12-04T07:28:17.042Z,29.62
2018-12-04T07:30:43.427Z,30.21
2018-12-04T07:33:09.864Z,29.48
2018-12-04T07:35:36.245Z,29.55
2018-12-04T07:38:02.587Z,30.00
2018-12-04T07:40:29.371Z,30.02
2018-12-04T07:42:55.758Z,29.83
2018-12-04T07:45:22.134Z,30.18
2018-12-04T07:47:48.469Z,30.02
2018-12-04T07:50:14.880Z,30.26
2018-12-04T07:52:41.210Z,31.23
2018-12-04T07:55:07.560Z,31.36
2018-12-04T07:57:33.990Z,30.65
2018-12-04T08:00:00.330Z,30.04
2018-12-04T08:02:26.686Z,29.88
2018-12-04T08:04:53.084Z,30.12
2018-12-04T08:07:19.503Z,30.24
2018-12-04T08:09:45.818Z,30.06
2018-12-04T08:12:12.172Z,31.11
2018-12-04T08:14:38.579Z,30.14
2018-12-04T08:17:04.918Z,30.29
2018-12-04T08:19:31.369Z,29.73
2018-12-04T08:21:57.722Z,29.56
2018-12-04T08:24:24.115Z,29.53
2018-12-04T08:26:50.566Z,29.17
2018-12-04T08:29:16.952Z,29.46
2018-12-04T08:31:43.344Z,29.84
2018-12-04T08:34:09.720Z,29.71
2018-12-04T08:36:36.020Z,29.78
2018-12-04T08:39:02.524Z,29.27
2018-12-04T08:41:28.852Z,29.49
2018-12-04T08:43:55.264Z,29.47
2018-12-04T08:46:21.636Z,29.34
2018-12-04T08:48:48.019Z,29.40
2018-12-04T08:51:14.354Z,29.50
2018-12-04T08:53:40.692Z,29.53
2018-12-04T08:56:07.046Z,29.01
2018-12-04T08:58:33.435Z,29.37
2018-12-04T09:00:59.917Z,29.46
2018-12-04T09:03:26.717Z,28.92
2018-12-04T09:05:53.001Z,29.16
2018-12-04T09:08:19.378Z,29.53
2018-12-04T09:10:45.762Z,29.21
2018-12-04T09:13:12.116Z,29.32
2018-12-04T09:15:38.525Z,28.68
2018-12-04T09:18:04.881Z,28.60
2018-12-04T09:20:31.321Z,28.68
2018-12-04T09:22:57.938Z,28.42
2018-12-04T09:25:24.376Z,28.40
2018-12-04T09:27:50.803Z,28.65
2018-12-04T09:30:17.141Z,28.00
2018-12-04T09:32:44.058Z,28.24
2018-12-04T09:35:10.508Z,28.14
2018-12-04T09:37:36.937Z,28.21
2018-12-04T09:40:03.566Z,28.35
2018-12-04T09:42:29.858Z,28.02
2018-12-04T09:44:56.233Z,28.09
2018-12-04T09:47:22.584Z,28.28
2018-12-04T09:49:49.184Z,28.25
2018-12-04T09:52:15.612Z,28.70
2018-12-04T09:54:41.963Z,28.24
2018-12-04T09:57:08.294Z,28.48
2018-12-04T09:59:39.490Z,28.26
2018-12-04T10:02:01.239Z,28.61
2018-12-04T10:04:27.577Z,28.18
2018-12-04T10:06:54.078Z,28.50
2018-12-04T10:09:20.409Z,28.66
2018-12-04T10:11:46.749Z,28.58
2018-12-04T10:14:13.074Z,28.43
2018-12-04T10:16:39.421Z,28.62
2018-12-04T10:19:06.753Z,28.90
2018-12-04T10:21:33.142Z,28.37
2018-12-04T10:23:59.512Z,28.04
2018-12-04T10:26:25.862Z,27.98
2018-12-04T10:28:52.267Z,27.89
2018-12-04T10:31:18.665Z,28.36
2018-12-04T10:33:45.053Z,27.90
2018-12-04T10:36:24.304Z,28.04
2018-12-04T10:38:50.763Z,28.00
2018-12-04T10:41:17.193Z,27.96
2018-12-04T10:43:43.511Z,28.76
2018-12-04T10:46:09.883Z,28.65
2018-12-04T10:48:36.197Z,28.38
2018-12-04T10:51:04.996Z,28.52
2018-12-04T10:53:31.373Z,28.19
2018-12-04T10:55:57.707Z,28.03
2018-12-04T10:58:24.148Z,28.13
2018-12-04T11:00:50.505Z,28.95
2018-12-04T11:03:16.901Z,28.09
2018-12-04T11:05:43.302Z,28.59
2018-12-04T11:08:09.676Z,28.97
2018-12-04T11:10:36.025Z,29.28
2018-12-04T11:13:02.378Z,29.07
2018-12-04T11:15:30.433Z,29.58
2018-12-04T11:17:55.098Z,29.19
2018-12-04T11:20:21.493Z,29.03
2018-12-04T11:22:48.174Z,28.92
2018-12-04T11:25:16.985Z,29.75
2018-12-04T11:27:43.377Z,29.16
2018-12-04T11:30:09.720Z,29.51
2018-12-04T11:32:36.096Z,29.47
2018-12-04T11:35:02.454Z,29.61
2018-12-04T11:37:28.809Z,29.18
2018-12-04T11:39:55.191Z,29.68
2018-12-04T11:42:21.580Z,29.25
2018-12-04T11:44:47.976Z,29.07
2018-12-04T11:47:14.346Z,29.65
2018-12-04T11:49:41.075Z,29.10
2018-12-04T11:52:07.676Z,29.91
2018-12-04T11:54:34.511Z,28.79
2018-12-04T11:57:00.890Z,28.80
2018-12-04T11:59:27.402Z,29.06
2018-12-04T12:01:53.816Z,29.11
2018-12-04T12:04:20.177Z,29.11
2018-12-04T12:06:49.043Z,28.67
2018-12-04T12:09:15.508Z,28.86
2018-12-04T12:11:41.938Z,28.61
2018-12-04T12:14:08.333Z,28.70
2018-12-04T12:16:34.748Z,28.53
2018-12-04T12:19:01.190Z,28.71
2018-12-04T12:21:27.698Z,28.34
2018-12-04T12:23:54.270Z,28.37
2018-12-04T12:26:20.665Z,28.80
2018-12-04T12:28:48.163Z,28.65
2018-12-04T12:31:14.572Z,28.74
2018-12-04T12:33:43.116Z,28.82
2018-12-04T12:36:09.672Z,28.59
2018-12-04T12:38:36.507Z,28.95
2018-12-04T12:41:03.052Z,28.70
2018-12-04T12:43:30.721Z,29.48
2018-12-04T12:45:57.055Z,28.61
2018-12-04T12:48:23.503Z,28.31
2018-12-04T12:50:49.873Z,28.80
2018-12-04T12:53:16.212Z,29.69
2018-12-04T12:55:43.106Z,29.21
2018-12-04T12:58:09.506Z,28.80
2018-12-04T13:00:36.045Z,29.10
2018-12-04T13:03:02.459Z,29.30
2018-12-04T13:05:28.802Z,29.02
2018-12-04T13:07:55.221Z,28.94
2018-12-04T13:10:22.116Z,28.93
2018-12-04T13:12:48.466Z,28.84
2018-12-04T13:15:14.970Z,29.27
2018-12-04T13:17:41.281Z,28.89
2018-12-04T13:20:07.754Z,28.96
2018-12-04T13:22:34.188Z,29.69
2018-12-04T13:25:02.675Z,29.47
2018-12-04T13:27:28.940Z,29.43
2018-12-04T13:29:55.329Z,29.32
2018-12-04T13:32:23.207Z,29.46
2018-12-04T13:34:54.262Z,30.28
2018-12-04T13:37:21.047Z,29.95
2018-12-04T13:39:47.374Z,29.31
2018-12-04T13:42:13.793Z,29.47
2018-12-04T13:44:40.222Z,29.51
2018-12-04T13:47:06.612Z,29.53
2018-12-04T13:49:33.988Z,29.23
2018-12-04T13:52:00.457Z,29.29
2018-12-04T13:54:26.797Z,28.90
2018-12-04T13:56:53.293Z,29.18
2018-12-04T13:59:19.873Z,29.21
2018-12-04T14:01:46.289Z,29.63
2018-12-04T14:04:16.579Z,29.06
2018-12-04T14:06:39.000Z,29.36
2018-12-04T14:09:05.446Z,29.27
2018-12-04T14:11:31.904Z,29.05
2018-12-04T14:13:58.259Z,29.32
2018-12-04T14:16:24.662Z,28.91
2018-12-04T14:18:51.048Z,29.28
2018-12-04T14:21:17.374Z,29.37
2018-12-04T14:23:43.721Z,29.52
2018-12-04T14:26:10.205Z,29.49
2018-12-04T14:28:36.568Z,29.57
2018-12-04T14:31:03.331Z,29.58
2018-12-04T14:33:29.663Z,29.32
2018-12-04T14:35:56.018Z,29.53
2018-12-04T14:38:24.672Z,29.26
2018-12-04T14:40:48.760Z,29.34
2018-12-04T14:43:15.186Z,29.48
2018-12-04T14:45:43.702Z,29.40
2018-12-04T14:48:10.104Z,29.35
2018-12-04T14:50:36.553Z,29.34
2018-12-04T14:53:02.913Z,29.38
2018-12-04T14:55:29.277Z,29.41
2018-12-04T14:57:55.661Z,29.38
2018-12-04T15:00:21.950Z,29.47
2018-12-04T15:02:48.331Z,29.47
2018-12-04T15:05:14.700Z,29.44
2018-12-04T15:07:41.063Z,29.54
2018-12-04T15:10:07.435Z,29.56
2018-12-04T15:12:34.132Z,29.30
2018-12-04T15:15:00.644Z,29.31
2018-12-04T15:17:27.049Z,29.19
2018-12-04T15:19:53.584Z,29.36
2018-12-04T15:22:20.016Z,29.45
2018-12-04T15:24:46.323Z,29.51
2018-12-04T15:27:12.710Z,29.45
2018-12-04T15:29:39.136Z,29.51
2018-12-04T15:32:05.509Z,29.40
2018-12-04T15:34:31.824Z,29.33
2018-12-04T15:36:58.194Z,29.39
2018-12-04T15:39:24.585Z,29.27
2018-12-04T15:41:50.917Z,28.99
2018-12-04T15:44:17.256Z,29.27
2018-12-04T15:46:43.635Z,29.17
2018-12-04T15:49:10.008Z,29.12
2018-12-04T15:51:36.454Z,29.31
2018-12-04T15:54:02.782Z,29.41
2018-12-04T15:56:29.193Z,29.30
2018-12-04T15:58:55.650Z,29.01
2018-12-04T16:01:22.189Z,28.95
2018-12-04T16:03:48.546Z,28.95
2018-12-04T16:06:14.955Z,28.89
2018-12-04T16:08:41.253Z,28.86
2018-12-04T16:11:07.586Z,29.09
2018-12-04T16:13:33.977Z,29.01
2018-12-04T16:16:00.507Z,29.39
2018-12-04T16:18:26.980Z,29.20
2018-12-04T16:20:53.336Z,29.14
2018-12-04T16:23:19.780Z,29.29
2018-12-04T16:25:46.183Z,28.92
2018-12-04T16:28:13.061Z,29.06
2018-12-04T16:30:39.414Z,28.71
2018-12-04T16:33:05.939Z,28.94
2018-12-04T16:35:32.386Z,28.86
2018-12-04T16:37:58.884Z,29.17
2018-12-04T16:40:25.233Z,29.10
2018-12-04T16:42:51.564Z,29.06
2018-12-04T16:45:17.899Z,29.16
2018-12-04T16:47:44.289Z,29.18
2018-12-04T16:50:10.662Z,28.98
2018-12-04T16:52:37.000Z,28.90
2018-12-04T16:55:03.409Z,28.85
2018-12-04T16:57:29.755Z,29.04
2018-12-04T16:59:56.143Z,29.13
2018-12-04T17:02:22.429Z,29.12
2018-12-04T17:04:48.852Z,29.02
2018-12-04T17:07:15.153Z,28.79
2018-12-04T17:09:41.594Z,28.83
2018-12-04T17:12:07.890Z,28.81
2018-12-04T17:14:34.276Z,28.87
2018-12-04T17:17:00.620Z,28.95
2018-12-04T17:19:27.019Z,29.08
2018-12-04T17:21:53.444Z,29.13
2018-12-04T17:24:19.782Z,29.09
2018-12-04T17:26:46.159Z,29.10
2018-12-04T17:29:12.741Z,29.13
2018-12-04T17:31:39.101Z,29.08
2018-12-04T17:34:05.507Z,29.12
2018-12-04T17:36:31.859Z,29.16
2018-12-04T17:38:58.220Z,28.88
2018-12-04T17:41:24.569Z,29.02
2018-12-04T17:43:50.967Z,29.04
2018-12-04T17:46:17.358Z,29.01
2018-12-04T17:48:43.689Z,29.14
2018-12-04T17:51:10.055Z,29.25
2018-12-04T17:53:36.424Z,29.24
2018-12-04T17:56:02.777Z,29.41
2018-12-04T17:58:29.107Z,29.37
2018-12-04T18:00:55.491Z,29.41
2018-12-04T18:03:21.873Z,29.37
2018-12-04T18:05:48.311Z,29.35
2018-12-04T18:08:14.689Z,29.92
2018-12-04T18:10:41.220Z,29.95
2018-12-04T18:13:07.500Z,30.08
2018-12-04T18:15:33.837Z,30.19
2018-12-04T18:18:00.182Z,30.25
2018-12-04T18:20:26.509Z,30.26
2018-12-04T18:22:52.972Z,30.38
2018-12-04T18:25:19.278Z,30.29
2018-12-04T18:27:45.747Z,30.30
2018-12-04T18:30:12.066Z,30.21
2018-12-04T18:32:38.470Z,30.19
2018-12-04T18:35:04.798Z,30.19
2018-12-04T18:37:31.155Z,30.15
2018-12-04T18:39:57.556Z,29.99
2018-12-04T18:42:23.915Z,30.07
2018-12-04T18:44:50.301Z,29.98
2018-12-04T18:47:16.720Z,29.92
2018-12-04T18:49:43.048Z,29.91
2018-12-04T18:52:09.453Z,29.88
2018-12-04T18:54:35.818Z,29.89
2018-12-04T18:57:02.230Z,29.84
2018-12-04T18:59:28.568Z,29.84
2018-12-04T19:01:54.973Z,29.81
2018-12-04T19:04:21.316Z,29.92
2018-12-04T19:06:47.809Z,29.99
2018-12-04T19:09:14.275Z,29.93
2018-12-04T19:11:40.684Z,29.99
2018-12-04T19:14:06.976Z,29.93
2018-12-04T19:16:33.304Z,29.88
2018-12-04T19:18:59.669Z,29.93
2018-12-04T19:21:26.033Z,29.89
2018-12-04T19:23:52.421Z,29.99
2018-12-04T19:26:18.768Z,30.08
2018-12-04T19:28:45.226Z,30.10
2018-12-04T19:31:11.521Z,30.10
2018-12-04T19:33:37.869Z,30.17
2018-12-04T19:36:04.213Z,30.22
2018-12-04T19:38:30.577Z,30.25
2018-12-04T19:40:56.926Z,30.22
2018-12-04T19:43:23.379Z,30.41
2018-12-04T19:45:49.737Z,30.39
2018-12-04T19:48:16.073Z,30.50
2018-12-04T19:50:42.429Z,30.52
2018-12-04T19:53:08.822Z,30.46
2018-12-04T19:55:35.246Z,30.45
2018-12-04T19:58:01.714Z,30.46
2018-12-04T20:00:28.023Z,30.45
2018-12-04T20:02:54.441Z,30.47
2018-12-04T20:05:20.748Z,30.42
2018-12-04T20:07:47.100Z,30.39
2018-12-04T20:10:13.539Z,30.43
2018-12-04T20:12:39.876Z,30.50
2018-12-04T20:15:06.265Z,30.54
2018-12-04T20:17:32.601Z,30.60
2018-12-04T20:19:58.957Z,30.60
2018-12-04T20:22:25.318Z,30.66
2018-12-04T20:24:51.738Z,30.52
2018-12-04T20:27:18.090Z,30.57
2018-12-04T20:29:44.426Z,30.72
2018-12-04T20:32:10.815Z,30.89
2018-12-04T20:34:37.112Z,31.02
2018-12-04T20:37:03.537Z,31.19
2018-12-04T20:39:29.865Z,31.30
2018-12-04T20:41:56.229Z,31.31
2018-12-04T20:44:22.596Z,31.41
2018-12-04T20:46:48.940Z,31.39
2018-12-04T20:49:15.288Z,31.32
2018-12-04T20:51:41.624Z,31.41
2018-12-04T20:54:07.960Z,31.44
2018-12-04T20:56:34.427Z,31.51
2018-12-04T20:59:00.780Z,31.58
2018-12-04T21:01:27.127Z,31.74
2018-12-04T21:03:53.474Z,31.77
2018-12-04T21:06:19.887Z,31.83
2018-12-04T21:08:46.237Z,31.78
2018-12-04T21:11:12.569Z,31.80
2018-12-04T21:13:38.916Z,31.77
2018-12-04T21:16:05.318Z,31.71
2018-12-04T21:18:31.645Z,31.75
2018-12-04T21:20:57.977Z,31.69
2018-12-04T21:23:24.326Z,31.87
2018-12-04T21:25:50.657Z,31.94
2018-12-04T21:28:17.047Z,32.07
2018-12-04T21:30:43.391Z,32.02
2018-12-04T21:33:09.809Z,32.20
2018-12-04T21:35:36.276Z,32.16
2018-12-04T21:38:02.605Z,32.04
2018-12-04T21:40:28.936Z,32.18
2018-12-04T21:42:55.274Z,32.19
2018-12-04T21:45:21.652Z,32.32
2018-12-04T21:47:47.994Z,32.39
2018-12-04T21:50:14.372Z,32.36
2018-12-04T21:52:40.706Z,32.40
2018-12-04T21:55:07.046Z,32.39
2018-12-04T21:57:33.435Z,32.41
2018-12-04T21:59:59.781Z,32.44
2018-12-04T22:02:26.138Z,32.39
2018-12-04T22:04:52.535Z,32.39
2018-12-04T22:07:18.870Z,32.45
2018-12-04T22:09:45.261Z,32.53
2018-12-04T22:12:11.651Z,32.72
2018-12-04T22:14:37.979Z,32.63
2018-12-04T22:17:04.369Z,32.69
2018-12-04T22:19:30.744Z,32.67
2018-12-04T22:21:57.077Z,32.74
2018-12-04T22:24:23.410Z,32.61
2018-12-04T22:26:49.747Z,32.62
2018-12-04T22:29:16.134Z,32.62
2018-12-04T22:31:42.500Z,32.60
2018-12-04T22:34:08.862Z,32.79
2018-12-04T22:36:35.171Z,32.85
2018-12-04T22:39:01.627Z,32.80
2018-12-04T22:41:28.003Z,32.83
2018-12-04T22:43:54.403Z,32.84
2018-12-04T22:46:20.761Z,32.81
2018-12-04T22:48:47.098Z,32.86
2018-12-04T22:51:13.458Z,32.95
2018-12-04T22:53:39.886Z,33.00
2018-12-04T22:56:06.220Z,33.06
2018-12-04T22:58:32.591Z,33.09
2018-12-04T23:00:58.886Z,33.08
2018-12-04T23:03:25.272Z,32.95
2018-12-04T23:05:51.674Z,33.08
2018-12-04T23:08:18.022Z,33.07
2018-12-04T23:10:44.436Z,33.09
2018-12-04T23:13:10.797Z,33.22
2018-12-04T23:15:37.236Z,33.25
2018-12-04T23:18:03.571Z,33.25
2018-12-04T23:20:29.919Z,33.30
2018-12-04T23:22:56.284Z,33.25
2018-12-04T23:25:22.694Z,33.21
2018-12-04T23:27:49.025Z,33.19
2018-12-04T23:30:15.339Z,33.27
2018-12-04T23:32:41.757Z,33.38
2018-12-04T23:35:08.114Z,33.37
2018-12-04T23:37:34.456Z,33.41
2018-12-04T23:40:00.793Z,33.25
2018-12-04T23:42:27.114Z,33.38
2018-12-04T23:44:53.470Z,33.40
2018-12-04T23:47:19.801Z,33.40
2018-12-04T23:49:46.205Z,33.40
2018-12-04T23:52:12.535Z,33.40
2018-12-04T23:54:38.873Z,33.47
2018-12-04T23:57:05.224Z,33.56
2018-12-04T23:59:31.554Z,33.64
